createdAt,value
2019-04-10T00:01:19.439Z,97.60
2019-04-10T00:03:50.558Z,97.60
2019-04-10T00:06:21.648Z,97.20
2019-04-10T00:08:52.863Z,97.10
2019-04-10T00:11:24.823Z,97.30
2019-04-10T00:13:55.713Z,97.40
2019-04-10T00:16:26.445Z,97.30
2019-04-10T00:19:09.318Z,97.10
2019-04-10T00:21:40.034Z,97.10
2019-04-10T00:24:11.509Z,97.50
2019-04-10T00:26:42.336Z,97.40
2019-04-10T00:29:14.087Z,97.70
2019-04-10T00:31:44.780Z,98.10
2019-04-10T00:34:15.708Z,97.10
2019-04-10T00:36:46.394Z,97.90
2019-04-10T00:39:18.063Z,97.60
2019-04-10T00:41:48.905Z,97.80
2019-04-10T00:44:19.621Z,97.70
2019-04-10T00:46:50.671Z,98.20
2019-04-10T00:49:21.814Z,98.80
2019-04-10T00:51:52.631Z,98.30
2019-04-10T00:54:23.743Z,97.90
2019-04-10T00:56:54.532Z,98.20
2019-04-10T00:59:26.143Z,98.10
2019-04-10T01:01:56.895Z,98.80
2019-04-10T01:04:28.617Z,98.60
2019-04-10T01:07:00.150Z,98.60
2019-04-10T01:09:31.191Z,98.90
2019-04-10T01:12:01.862Z,98.80
2019-04-10T01:14:33.830Z,99.00
2019-04-10T01:17:04.704Z,98.80
2019-04-10T01:19:36.358Z,99.10
2019-04-10T01:22:07.246Z,98.60
2019-04-10T01:24:38.024Z,99.00
2019-04-10T01:27:09.515Z,98.50
2019-04-10T01:29:40.646Z,98.70
2019-04-10T01:32:12.009Z,98.60
2019-04-10T01:34:43.392Z,98.00
2019-04-10T01:37:14.134Z,97.60
2019-04-10T01:39:44.952Z,97.60
2019-04-10T01:42:16.553Z,97.00
2019-04-10T01:44:47.539Z,97.30
2019-04-10T01:47:19.223Z,98.00
2019-04-10T01:49:50.323Z,96.90
2019-04-10T01:52:21.163Z,96.40
2019-04-10T01:54:51.937Z,96.70
2019-04-10T01:57:22.626Z,96.50
2019-04-10T01:59:54.228Z,96.80
2019-04-10T02:02:47.690Z,96.60
2019-04-10T02:05:18.803Z,96.10
2019-04-10T02:08:01.212Z,96.10
2019-04-10T02:10:21.982Z,95.70
2019-04-10T02:12:52.740Z,96.00
2019-04-10T02:15:23.475Z,95.50
2019-04-10T02:17:55.117Z,95.40
2019-04-10T02:20:27.073Z,95.10
2019-04-10T02:22:58.247Z,94.30
2019-04-10T02:25:29.090Z,95.00
2019-04-10T02:27:59.836Z,94.30
2019-04-10T02:30:32.414Z,94.40
2019-04-10T02:33:04.237Z,93.00
2019-04-10T02:35:36.175Z,93.10
2019-04-10T02:38:26.009Z,93.00
2019-04-10T02:40:39.479Z,93.70
2019-04-10T02:43:11.818Z,93.60
2019-04-10T02:45:44.396Z,92.10
2019-04-10T02:48:17.114Z,92.80
2019-04-10T02:50:49.232Z,91.80
2019-04-10T02:53:21.414Z,91.80
2019-04-10T02:55:53.651Z,90.30
2019-04-10T02:58:24.804Z,90.10
2019-04-10T03:00:56.317Z,89.60
2019-04-10T03:03:27.593Z,89.90
2019-04-10T03:05:58.774Z,90.40
2019-04-10T03:08:44.915Z,89.30
2019-04-10T03:11:05.040Z,89.00
2019-04-10T03:13:35.880Z,87.90
2019-04-10T03:16:07.482Z,86.90
2019-04-10T03:18:39.101Z,87.30
2019-04-10T03:21:10.999Z,87.70
2019-04-10T03:23:42.329Z,87.70
2019-04-10T03:26:13.124Z,87.50
2019-04-10T03:28:44.170Z,86.40
2019-04-10T03:31:15.744Z,85.90
2019-04-10T03:34:08.145Z,86.10
2019-04-10T03:36:38.148Z,86.60
2019-04-10T03:39:10.557Z,86.30
2019-04-10T03:41:42.155Z,85.50
2019-04-10T03:44:13.026Z,85.30
2019-04-10T03:46:44.758Z,85.60
2019-04-10T03:49:15.824Z,85.70
2019-04-10T03:51:47.116Z,85.30
2019-04-10T03:54:18.699Z,85.20
2019-04-10T03:56:50.027Z,86.20
2019-04-10T03:59:20.842Z,85.60
2019-04-10T04:01:51.609Z,85.80
2019-04-10T04:04:22.369Z,85.60
2019-04-10T04:06:53.111Z,84.20
2019-04-10T04:09:23.887Z,84.40
2019-04-10T04:11:54.613Z,85.00
2019-04-10T04:14:25.411Z,84.50
2019-04-10T04:16:56.107Z,84.50
2019-04-10T04:19:26.883Z,84.30
2019-04-10T04:21:58.463Z,83.60
2019-04-10T04:24:29.397Z,83.40
2019-04-10T04:27:00.588Z,83.80
2019-04-10T04:29:32.289Z,83.70
2019-04-10T04:32:03.194Z,83.30
2019-04-10T04:34:34.696Z,83.60
2019-04-10T04:37:05.586Z,83.10
2019-04-10T04:39:37.296Z,83.80
2019-04-10T04:42:09.188Z,83.00
2019-04-10T04:44:39.995Z,83.30
2019-04-10T04:47:10.731Z,83.10
2019-04-10T04:49:42.094Z,83.20
2019-04-10T04:52:13.982Z,83.30
2019-04-10T04:54:45.621Z,83.70
2019-04-10T04:57:17.007Z,83.20
2019-04-10T04:59:48.312Z,83.30
2019-04-10T05:02:19.935Z,83.60
2019-04-10T05:04:51.471Z,83.80
2019-04-10T05:07:22.544Z,83.60
2019-04-10T05:09:53.701Z,84.80
2019-04-10T05:12:25.508Z,83.90
2019-04-10T05:14:56.324Z,86.00
2019-04-10T05:17:27.017Z,84.20
2019-04-10T05:19:58.716Z,84.10
2019-04-10T05:22:29.463Z,83.10
2019-04-10T05:25:00.670Z,84.20
2019-04-10T05:27:31.422Z,83.60
2019-04-10T05:30:02.393Z,83.90
2019-04-10T05:32:33.336Z,83.40
2019-04-10T05:35:06.888Z,82.90
2019-04-10T05:37:37.927Z,84.00
2019-04-10T05:40:09.799Z,83.70
2019-04-10T05:42:41.579Z,83.40
2019-04-10T05:45:12.887Z,82.70
2019-04-10T05:47:44.454Z,83.60
2019-04-10T05:50:15.282Z,83.40
2019-04-10T05:52:45.996Z,83.70
2019-04-10T05:55:16.732Z,83.30
2019-04-10T05:57:47.409Z,83.00
2019-04-10T06:00:18.955Z,82.80
2019-04-10T06:02:50.294Z,83.30
2019-04-10T06:05:22.121Z,83.60
2019-04-10T06:07:53.833Z,83.70
2019-04-10T06:10:24.751Z,83.60
2019-04-10T06:12:55.467Z,83.40
2019-04-10T06:15:26.605Z,84.60
2019-04-10T06:17:58.612Z,83.00
2019-04-10T06:20:29.504Z,83.20
2019-04-10T06:23:01.240Z,83.00
2019-04-10T06:25:34.030Z,83.60
2019-04-10T06:28:05.332Z,83.80
2019-04-10T06:30:36.348Z,83.90
2019-04-10T06:33:07.553Z,83.10
2019-04-10T06:35:38.423Z,83.30
2019-04-10T06:38:09.131Z,83.70
2019-04-10T06:40:39.888Z,82.20
2019-04-10T06:43:10.705Z,81.70
2019-04-10T06:45:41.964Z,83.30
2019-04-10T06:48:13.067Z,82.70
2019-04-10T06:50:44.802Z,82.60
2019-04-10T06:53:18.530Z,82.50
2019-04-10T06:55:48.902Z,82.90
2019-04-10T06:58:20.079Z,82.50
2019-04-10T07:00:53.311Z,81.70
2019-04-10T07:03:23.494Z,81.30
2019-04-10T07:06:06.213Z,81.20
2019-04-10T07:08:27.601Z,80.20
2019-04-10T07:11:05.127Z,77.30
2019-04-10T07:13:30.771Z,77.00
2019-04-10T07:16:02.167Z,77.80
2019-04-10T07:18:35.787Z,75.30
2019-04-10T07:21:06.418Z,72.20
2019-04-10T07:23:37.206Z,71.00
2019-04-10T07:26:08.069Z,70.70
2019-04-10T07:28:41.720Z,69.00
2019-04-10T07:31:11.639Z,69.80
2019-04-10T07:33:42.628Z,66.90
2019-04-10T07:36:14.123Z,65.60
2019-04-10T07:38:44.813Z,67.60
2019-04-10T07:41:21.025Z,68.00
2019-04-10T07:43:53.572Z,66.60
2019-04-10T07:46:20.266Z,64.30
2019-04-10T07:48:51.065Z,63.80
2019-04-10T07:51:21.805Z,64.60
2019-04-10T07:53:52.568Z,63.20
2019-04-10T07:56:23.318Z,63.20
2019-04-10T07:58:54.074Z,62.90
2019-04-10T08:01:24.810Z,62.80
2019-04-10T08:03:55.677Z,63.70
2019-04-10T08:06:27.702Z,65.30
2019-04-10T08:08:59.124Z,63.60
2019-04-10T08:11:30.108Z,63.30
2019-04-10T08:14:01.129Z,61.50
2019-04-10T08:16:32.890Z,61.50
2019-04-10T08:19:04.109Z,60.40
2019-04-10T08:21:35.853Z,59.30
2019-04-10T08:24:07.391Z,60.00
2019-04-10T08:26:38.818Z,61.40
2019-04-10T08:29:09.899Z,59.60
2019-04-10T08:31:40.737Z,57.20
2019-04-10T08:34:11.481Z,58.70
2019-04-10T08:36:42.231Z,58.20
2019-04-10T08:39:21.448Z,59.50
2019-04-10T08:41:46.021Z,57.90
2019-04-10T08:44:17.702Z,59.10
2019-04-10T08:46:48.494Z,59.00
2019-04-10T08:49:19.180Z,59.60
2019-04-10T08:52:34.717Z,58.50
2019-04-10T08:56:13.251Z,59.70
2019-04-10T08:59:01.400Z,59.40
2019-04-10T09:01:33.405Z,58.30
2019-04-10T09:04:04.303Z,57.50
2019-04-10T09:06:35.614Z,58.00
2019-04-10T09:09:08.026Z,59.00
2019-04-10T09:11:38.853Z,56.00
2019-04-10T09:14:10.649Z,54.70
2019-04-10T09:16:42.634Z,55.30
2019-04-10T09:19:13.946Z,54.00
2019-04-10T09:21:45.753Z,53.00
2019-04-10T09:35:22.758Z,54.90
2019-04-10T09:38:48.547Z,54.10
2019-04-10T09:41:38.297Z,53.30
2019-04-10T09:44:10.185Z,52.70
2019-04-10T09:46:41.037Z,53.50
2019-04-10T09:49:12.396Z,54.50
2019-04-10T09:51:43.307Z,53.60
2019-04-10T09:54:14.039Z,50.90
2019-04-10T09:56:44.734Z,51.60
2019-04-10T09:59:16.034Z,53.30
2019-04-10T10:01:46.837Z,52.90
2019-04-10T10:04:17.633Z,52.90
2019-04-10T10:07:20.707Z,51.40
2019-04-10T10:09:51.577Z,50.90
2019-04-10T10:12:38.764Z,48.00
2019-04-10T10:15:09.992Z,49.60
2019-04-10T10:17:41.226Z,50.30
2019-04-10T10:20:13.358Z,49.20
2019-04-10T10:22:47.490Z,49.30
2019-04-10T10:25:19.369Z,47.30
2019-04-10T10:28:01.079Z,49.60
2019-04-10T10:31:42.492Z,50.10
2019-04-10T10:38:13.107Z,49.80
2019-04-10T10:44:02.378Z,46.60
2019-04-10T10:47:06.793Z,45.00
2019-04-10T10:52:53.385Z,47.80
2019-04-10T10:55:25.322Z,47.10
2019-04-10T10:57:56.099Z,46.40
2019-04-10T11:00:27.240Z,46.40
2019-04-10T11:02:58.153Z,47.50
2019-04-10T11:05:30.810Z,47.70
2019-04-10T11:08:01.305Z,46.90
2019-04-10T11:10:32.131Z,45.50
2019-04-10T11:13:02.857Z,48.50
2019-04-10T11:15:34.141Z,46.40
2019-04-10T11:18:06.327Z,47.90
2019-04-10T11:20:37.295Z,46.20
2019-04-10T11:23:09.408Z,45.40
2019-04-10T11:25:40.514Z,44.80
2019-04-10T11:28:12.546Z,47.40
2019-04-10T11:30:44.930Z,45.60
2019-04-10T11:33:17.575Z,43.10
2019-04-10T11:35:48.205Z,44.00
2019-04-10T11:38:19.220Z,45.30
2019-04-10T11:40:52.030Z,45.70
2019-04-10T11:43:24.886Z,44.40
2019-04-10T11:45:58.201Z,46.40
2019-04-10T11:48:29.113Z,46.40
2019-04-10T11:51:01.116Z,44.60
2019-04-10T11:53:37.449Z,45.50
2019-04-10T11:56:05.665Z,44.70
2019-04-10T11:58:48.416Z,46.30
2019-04-10T12:01:08.959Z,44.70
2019-04-10T12:03:44.235Z,43.70
2019-04-10T12:06:13.669Z,40.30
2019-04-10T12:09:08.452Z,43.60
2019-04-10T12:11:19.926Z,42.90
2019-04-10T12:13:50.459Z,41.70
2019-04-10T12:16:21.338Z,38.70
2019-04-10T12:18:53.020Z,35.10
2019-04-10T12:21:24.023Z,35.60
2019-04-10T12:23:54.899Z,36.40
2019-04-10T12:26:25.634Z,33.60
2019-04-10T12:28:56.420Z,34.50
2019-04-10T12:31:28.114Z,35.00
2019-04-10T12:34:00.028Z,35.30
2019-04-10T12:36:31.439Z,35.50
2019-04-10T12:39:02.199Z,33.30
2019-04-10T12:41:33.217Z,33.90
2019-04-10T12:44:05.336Z,35.10
2019-04-10T12:46:37.267Z,34.10
2019-04-10T12:49:08.142Z,33.60
2019-04-10T12:51:38.920Z,32.70
2019-04-10T12:54:09.999Z,32.30
2019-04-10T12:56:40.711Z,32.60
2019-04-10T12:59:11.507Z,30.30
2019-04-10T13:01:42.165Z,31.80
2019-04-10T13:04:13.836Z,30.50
2019-04-10T13:06:44.624Z,30.70
2019-04-10T13:09:15.954Z,32.00
2019-04-10T13:11:46.895Z,31.20
2019-04-10T13:14:18.646Z,28.50
2019-04-10T13:16:50.135Z,30.90
2019-04-10T13:19:21.008Z,31.60
2019-04-10T13:21:51.974Z,33.30
2019-04-10T13:24:23.772Z,31.50
2019-04-10T13:26:55.171Z,31.50
2019-04-10T13:29:26.014Z,29.80
2019-04-10T13:31:56.769Z,28.40
2019-04-10T13:34:27.525Z,29.30
2019-04-10T13:36:58.281Z,29.10
2019-04-10T13:39:29.102Z,32.40
2019-04-10T13:42:00.911Z,35.20
2019-04-10T13:44:32.743Z,32.20
2019-04-10T13:47:04.996Z,30.60
2019-04-10T13:49:35.863Z,30.80
2019-04-10T13:52:07.779Z,28.90
2019-04-10T13:54:38.881Z,28.40
2019-04-10T13:57:09.830Z,27.50
2019-04-10T13:59:41.457Z,26.60
2019-04-10T14:02:17.367Z,26.50
2019-04-10T14:04:49.346Z,27.00
2019-04-10T14:07:20.262Z,25.80
2019-04-10T14:09:52.306Z,25.20
2019-04-10T14:12:23.342Z,24.80
2019-04-10T14:14:55.156Z,26.20
2019-04-10T14:17:25.997Z,25.50
2019-04-10T14:19:58.891Z,25.60
2019-04-10T14:22:29.532Z,26.50
2019-04-10T14:25:00.985Z,26.30
2019-04-10T14:27:32.087Z,26.20
2019-04-10T14:30:03.607Z,25.70
2019-04-10T14:32:38.054Z,26.20
2019-04-10T14:35:09.799Z,27.40
2019-04-10T14:37:41.300Z,25.20
2019-04-10T14:40:13.604Z,25.10
2019-04-10T14:42:44.400Z,26.40
2019-04-10T14:45:15.275Z,24.90
2019-04-10T14:47:46.272Z,24.20
2019-04-10T14:50:17.795Z,24.00
2019-04-10T14:52:49.476Z,25.00
2019-04-10T14:55:21.855Z,25.80
2019-04-10T14:57:53.095Z,24.90
2019-04-10T15:00:32.910Z,25.80
2019-04-10T15:03:04.352Z,27.70
2019-04-10T15:05:44.906Z,27.00
2019-04-10T15:08:07.566Z,27.00
2019-04-10T15:10:38.334Z,29.10
2019-04-10T15:13:14.924Z,28.60
2019-04-10T15:15:41.461Z,30.80
2019-04-10T15:18:12.930Z,33.20
2019-04-10T15:20:43.828Z,36.10
2019-04-10T15:23:15.400Z,37.60
2019-04-10T15:25:47.108Z,39.50
2019-04-10T15:28:18.082Z,38.20
2019-04-10T15:30:48.824Z,36.60
2019-04-10T15:33:20.552Z,37.10
2019-04-10T15:35:51.386Z,38.70
2019-04-10T15:38:22.132Z,38.30
2019-04-10T15:40:52.869Z,37.90
2019-04-10T15:43:24.943Z,39.10
2019-04-10T15:45:56.814Z,39.20
2019-04-10T15:48:27.758Z,39.60
2019-04-10T15:50:58.521Z,39.30
2019-04-10T15:53:29.297Z,39.30
2019-04-10T15:56:01.199Z,39.20
2019-04-10T15:58:33.278Z,39.40
2019-04-10T16:01:05.677Z,40.90
2019-04-10T16:03:36.663Z,40.30
2019-04-10T16:06:08.222Z,40.30
2019-04-10T16:08:39.089Z,41.80
2019-04-10T16:11:20.218Z,40.90
2019-04-10T16:13:53.486Z,42.80
2019-04-10T16:16:52.918Z,41.60
2019-04-10T16:19:51.521Z,42.70
2019-04-10T16:22:29.529Z,41.70
2019-04-10T16:25:03.234Z,43.40
2019-04-10T16:27:34.017Z,43.30
2019-04-10T16:30:06.664Z,42.90
2019-04-10T16:32:37.405Z,44.10
2019-04-10T16:35:09.264Z,44.40
2019-04-10T16:37:40.188Z,44.00
2019-04-10T16:40:11.796Z,45.40
2019-04-10T16:42:43.853Z,44.30
2019-04-10T16:45:15.762Z,44.10
2019-04-10T16:47:46.584Z,44.30
2019-04-10T16:50:17.526Z,43.50
2019-04-10T16:52:49.170Z,44.30
2019-04-10T16:55:20.672Z,45.30
2019-04-10T16:57:51.550Z,45.20
2019-04-10T17:00:23.592Z,43.60
2019-04-10T17:02:54.462Z,42.70
2019-04-10T17:05:25.339Z,43.80
2019-04-10T17:07:57.250Z,43.10
2019-04-10T17:10:29.579Z,45.60
2019-04-10T17:13:00.422Z,44.30
2019-04-10T17:15:32.177Z,44.80
2019-04-10T17:18:03.200Z,45.30
2019-04-10T17:20:34.040Z,46.50
2019-04-10T17:23:05.878Z,46.20
2019-04-10T17:25:38.013Z,46.40
2019-04-10T17:28:10.116Z,47.10
2019-04-10T17:30:41.911Z,46.80
2019-04-10T17:33:13.247Z,47.10
2019-04-10T17:35:44.037Z,47.50
2019-04-10T17:38:15.037Z,47.60
2019-04-10T17:40:50.879Z,48.00
2019-04-10T17:43:19.038Z,48.30
2019-04-10T17:45:50.881Z,48.90
2019-04-10T17:48:22.024Z,48.70
2019-04-10T17:50:53.312Z,48.90
2019-04-10T17:53:25.236Z,49.50
2019-04-10T17:55:56.115Z,50.20
2019-04-10T17:58:27.497Z,50.70
2019-04-10T18:00:59.746Z,50.60
2019-04-10T18:03:42.976Z,51.20
2019-04-10T18:06:03.414Z,50.70
2019-04-10T18:08:34.678Z,51.40
2019-04-10T18:11:05.893Z,51.80
2019-04-10T18:13:36.715Z,51.50
2019-04-10T18:16:08.478Z,52.50
2019-04-10T18:18:40.079Z,53.00
2019-04-10T18:21:11.033Z,53.20
2019-04-10T18:23:41.895Z,53.70
2019-04-10T18:26:12.806Z,54.00
2019-04-10T18:28:43.640Z,54.50
2019-04-10T18:31:14.564Z,54.60
2019-04-10T18:33:45.279Z,55.10
2019-04-10T18:36:16.011Z,55.80
2019-04-10T18:38:47.906Z,56.10
2019-04-10T18:41:19.879Z,56.30
2019-04-10T18:43:50.873Z,56.40
2019-04-10T18:46:22.460Z,56.80
2019-04-10T18:48:54.766Z,56.90
2019-04-10T18:51:25.858Z,57.10
2019-04-10T18:53:57.584Z,57.40
2019-04-10T18:56:29.203Z,57.80
2019-04-10T18:59:05.732Z,58.10
2019-04-10T19:01:59.136Z,57.90
2019-04-10T19:04:43.601Z,58.00
2019-04-10T19:07:15.383Z,58.10
2019-04-10T19:09:46.934Z,58.00
2019-04-10T19:12:18.782Z,58.20
2019-04-10T19:14:50.815Z,58.90
2019-04-10T19:17:22.458Z,58.30
2019-04-10T19:19:53.291Z,58.70
2019-04-10T19:22:24.332Z,58.50
2019-04-10T19:24:56.587Z,58.30
2019-04-10T19:27:28.420Z,58.20
2019-04-10T19:29:59.336Z,58.20
2019-04-10T19:32:33.853Z,57.70
2019-04-10T19:35:06.599Z,57.70
2019-04-10T19:37:38.502Z,57.90
2019-04-10T19:40:11.241Z,58.60
2019-04-10T19:42:42.150Z,58.30
2019-04-10T19:45:12.906Z,58.30
2019-04-10T19:47:44.360Z,58.70
2019-04-10T19:50:15.234Z,59.60
2019-04-10T19:52:46.751Z,59.20
2019-04-10T19:55:17.770Z,59.40
2019-04-10T19:57:48.453Z,60.10
2019-04-10T20:00:22.160Z,60.50
2019-04-10T20:02:53.104Z,61.10
2019-04-10T20:05:23.897Z,61.20
2019-04-10T20:07:55.426Z,61.80
2019-04-10T20:10:27.486Z,62.40
2019-04-10T20:12:59.395Z,62.20
2019-04-10T20:15:30.771Z,62.40
2019-04-10T20:18:02.231Z,62.80
2019-04-10T20:20:33.165Z,63.00
2019-04-10T20:23:04.640Z,63.00
2019-04-10T20:25:36.712Z,62.70
2019-04-10T20:28:07.475Z,63.00
2019-04-10T20:30:38.280Z,62.50
2019-04-10T20:33:11.718Z,62.20
2019-04-10T20:35:42.602Z,62.60
2019-04-10T20:38:13.481Z,62.70
2019-04-10T20:40:44.357Z,62.70
2019-04-10T20:43:15.324Z,62.60
2019-04-10T20:45:47.507Z,62.30
2019-04-10T20:48:18.306Z,62.40
2019-04-10T20:51:08.248Z,62.40
2019-04-10T20:53:39.959Z,62.90
2019-04-10T20:56:30.674Z,62.70
2019-04-10T20:59:01.563Z,62.60
2019-04-10T21:01:33.062Z,62.60
2019-04-10T21:04:03.843Z,63.20
2019-04-10T21:06:34.590Z,63.60
2019-04-10T21:09:07.395Z,64.20
2019-04-10T21:11:38.249Z,63.90
2019-04-10T21:14:09.250Z,64.50
2019-04-10T21:16:40.159Z,64.80
2019-04-10T21:19:11.137Z,65.10
2019-04-10T21:21:42.028Z,65.50
2019-04-10T21:24:13.355Z,65.70
2019-04-10T21:26:44.414Z,66.00
2019-04-10T21:29:21.024Z,66.50
2019-04-10T21:32:17.356Z,66.20
2019-04-10T21:34:48.505Z,66.80
2019-04-10T21:37:19.213Z,66.80
2019-04-10T21:39:50.054Z,66.50
2019-04-10T21:42:23.850Z,65.90
2019-04-10T21:44:53.369Z,66.00
2019-04-10T21:47:25.605Z,65.40
2019-04-10T21:49:56.886Z,65.20
2019-04-10T21:52:27.746Z,65.50
2019-04-10T21:55:00.389Z,65.60
2019-04-10T21:57:30.714Z,65.70
2019-04-10T22:00:01.672Z,66.40
2019-04-10T22:02:32.301Z,66.10
2019-04-10T22:05:03.815Z,66.20
2019-04-10T22:07:52.358Z,66.60
2019-04-10T22:10:48.282Z,66.90
2019-04-10T22:13:19.783Z,67.40
2019-04-10T22:15:50.605Z,68.10
2019-04-10T22:18:21.317Z,68.10
2019-04-10T22:20:52.118Z,68.00
2019-04-10T22:23:22.835Z,68.50
2019-04-10T22:25:54.280Z,68.40
2019-04-10T22:28:25.335Z,68.40
2019-04-10T22:30:56.155Z,68.60
2019-04-10T22:33:27.810Z,69.00
2019-04-10T22:35:58.621Z,69.10
2019-04-10T22:38:29.425Z,69.40
2019-04-10T22:41:00.228Z,69.40
2019-04-10T22:43:31.934Z,69.70
2019-04-10T22:46:02.886Z,69.80
2019-04-10T22:48:33.785Z,69.50
2019-04-10T22:51:04.975Z,69.30
2019-04-10T22:53:37.436Z,69.20
2019-04-10T22:56:08.914Z,69.40
2019-04-10T22:58:39.731Z,69.60
2019-04-10T23:01:11.186Z,69.40
2019-04-10T23:03:41.813Z,69.40
2019-04-10T23:06:13.277Z,69.50
2019-04-10T23:08:44.076Z,69.20
2019-04-10T23:11:15.231Z,69.30
2019-04-10T23:13:45.978Z,69.30
2019-04-10T23:16:17.466Z,69.90
2019-04-10T23:18:48.241Z,69.80
2019-04-10T23:21:19.017Z,69.80
2019-04-10T23:23:50.038Z,70.50
2019-04-10T23:26:20.870Z,70.20
2019-04-10T23:28:51.806Z,70.10
2019-04-10T23:31:23.648Z,70.40
2019-04-10T23:33:54.552Z,70.70
2019-04-10T23:36:26.371Z,70.70
2019-04-10T23:38:57.651Z,70.60
2019-04-10T23:41:29.524Z,70.90
2019-04-10T23:44:00.316Z,71.00
2019-04-10T23:46:31.031Z,71.20
2019-04-10T23:49:02.869Z,71.10
2019-04-10T23:51:34.837Z,71.20
2019-04-10T23:54:05.782Z,70.80
2019-04-10T23:56:36.505Z,70.70
2019-04-10T23:59:07.234Z,71.00
